Time;durP1;ratioP1;P1;durP2;ratioP2;P2;SDS_P1;SDS_P2;PMS_P1;PMS_P2;Temp;Humidity;BMP_temperature;BMP_pressure;BME280_temperature;BME280_humidity;BME280_pressure;Samples;Min_cycle;Max_cycle;Signal;HPM_P1;HPM_P2
2023/04/23 00:00:56;;;;;;;5.70;4.77;;;11.50;99.90;;;;;;476727;249;28618;-73
2023/04/23 00:02:54;;;;;;;4.70;4.30;;;11.40;99.90;;;;;;476495;249;28505;-73
2023/04/23 00:04:56;;;;;;;5.33;4.83;;;11.40;99.90;;;;;;476673;249;29076;-72
2023/04/23 00:06:56;;;;;;;5.53;4.60;;;11.40;99.90;;;;;;476710;249;29070;-71
2023/04/23 00:08:58;;;;;;;5.57;5.07;;;11.40;99.90;;;;;;476711;249;28924;-73
2023/04/23 00:10:59;;;;;;;6.97;5.50;;;12.10;99.90;;;;;;476735;249;28080;-72
2023/04/23 00:13:00;;;;;;;4.50;4.10;;;11.50;99.90;;;;;;476762;249;28417;-72
2023/04/23 00:15:01;;;;;;;5.13;4.70;;;11.30;99.90;;;;;;476665;249;28280;-73
2023/04/23 00:17:03;;;;;;;7.00;5.40;;;11.30;99.90;;;;;;468852;245;28284;-72
2023/04/23 00:19:04;;;;;;;5.20;4.70;;;11.20;99.90;;;;;;468594;253;28226;-73
2023/04/23 00:21:07;;;;;;;6.37;4.93;;;11.30;99.90;;;;;;468624;253;28034;-72
2023/04/23 00:23:06;;;;;;;4.77;4.37;;;11.30;99.90;;;;;;468527;252;28314;-73
2023/04/23 00:25:08;;;;;;;5.67;5.07;;;10.90;99.90;;;;;;468503;253;28293;-72
2023/04/23 00:27:09;;;;;;;5.73;5.10;;;11.30;99.90;;;;;;468648;253;28321;-72
2023/04/23 00:29:10;;;;;;;6.07;5.40;;;11.10;99.90;;;;;;468614;253;28744;-72
2023/04/23 00:31:11;;;;;;;5.53;4.63;;;11.00;99.90;;;;;;468593;253;28750;-73
2023/04/23 00:33:13;;;;;;;8.23;6.53;;;11.40;99.90;;;;;;468646;253;28898;-73
2023/04/23 00:35:14;;;;;;;7.50;6.03;;;11.30;99.90;;;;;;468547;254;28332;-73
2023/04/23 00:37:15;;;;;;;8.93;6.00;;;11.30;99.90;;;;;;468627;253;28256;-72
2023/04/23 00:39:16;;;;;;;6.50;5.80;;;11.30;99.90;;;;;;468662;253;28204;-73
2023/04/23 00:41:18;;;;;;;6.10;5.60;;;11.30;99.90;;;;;;468611;253;28262;-73
2023/04/23 00:43:19;;;;;;;9.23;6.47;;;11.20;99.90;;;;;;468601;253;28056;-72
2023/04/23 00:45:20;;;;;;;6.83;6.13;;;11.30;99.90;;;;;;468534;253;28163;-73
2023/04/23 00:47:22;;;;;;;6.80;6.10;;;11.30;99.90;;;;;;468667;253;28191;-72
2023/04/23 00:49:23;;;;;;;7.00;6.30;;;11.20;99.90;;;;;;468621;253;28321;-73
2023/04/23 00:51:24;;;;;;;9.13;7.70;;;11.20;99.90;;;;;;468469;254;28175;-72
2023/04/23 00:53:25;;;;;;;6.90;6.20;;;11.20;99.90;;;;;;468618;253;28919;-72
2023/04/23 00:55:26;;;;;;;7.80;6.43;;;11.20;99.90;;;;;;468557;253;28949;-73
2023/04/23 00:57:28;;;;;;;7.27;6.10;;;11.20;99.90;;;;;;468645;254;28646;-72
2023/04/23 00:59:29;;;;;;;6.90;6.30;;;11.20;99.90;;;;;;468661;253;28582;-73
2023/04/23 01:01:32;;;;;;;9.40;6.50;;;11.20;99.90;;;;;;468611;253;28043;-72
2023/04/23 01:03:31;;;;;;;9.60;7.50;;;11.20;99.90;;;;;;468601;253;28317;-73
2023/04/23 01:05:33;;;;;;;6.17;5.57;;;11.10;99.90;;;;;;468596;253;28330;-72
2023/04/23 01:07:34;;;;;;;6.87;6.10;;;11.10;99.90;;;;;;468618;253;28187;-72
2023/04/23 01:09:35;;;;;;;7.80;7.00;;;11.10;99.90;;;;;;468647;253;28456;-72
2023/04/23 01:11:37;;;;;;;8.70;6.33;;;11.20;99.90;;;;;;468599;253;28397;-72
2023/04/23 01:13:38;;;;;;;7.10;6.50;;;11.20;99.90;;;;;;468610;253;28439;-73
2023/04/23 01:15:39;;;;;;;7.10;6.33;;;11.20;99.90;;;;;;468582;250;28447;-73
2023/04/23 01:17:41;;;;;;;7.47;5.93;;;11.20;99.90;;;;;;468615;254;28809;-72
2023/04/23 01:19:42;;;;;;;8.23;5.30;;;11.20;99.90;;;;;;468580;254;28767;-72
2023/04/23 01:21:43;;;;;;;6.13;5.53;;;11.20;99.90;;;;;;468621;253;28727;-72
2023/04/23 01:23:45;;;;;;;6.47;5.63;;;11.10;99.90;;;;;;468625;253;28772;-73
2023/04/23 01:25:45;;;;;;;6.07;5.47;;;11.20;99.90;;;;;;468577;253;28303;-73
2023/04/23 01:27:47;;;;;;;7.10;6.40;;;11.10;99.90;;;;;;468610;253;28064;-72
2023/04/23 01:29:48;;;;;;;5.80;5.30;;;11.10;99.90;;;;;;468611;250;28156;-72
2023/04/23 01:31:49;;;;;;;5.33;4.83;;;11.10;99.90;;;;;;468645;253;28058;-72
2023/04/23 01:33:54;;;;;;;5.10;4.60;;;11.10;99.90;;;;;;468576;254;28073;-72
2023/04/23 01:35:52;;;;;;;5.70;5.17;;;11.10;99.90;;;;;;468367;254;28292;-72
2023/04/23 01:37:53;;;;;;;6.93;4.00;;;11.10;99.90;;;;;;468618;253;28203;-72
2023/04/23 01:39:54;;;;;;;4.30;4.00;;;11.10;99.90;;;;;;468648;253;28088;-72
2023/04/23 01:41:56;;;;;;;4.70;4.30;;;11.10;99.90;;;;;;468615;253;28457;-73
2023/04/23 01:43:57;;;;;;;4.50;4.10;;;11.10;99.90;;;;;;468598;253;28432;-72
2023/04/23 01:45:58;;;;;;;5.50;4.33;;;11.00;99.90;;;;;;468591;253;28849;-72
2023/04/23 01:47:59;;;;;;;5.10;4.57;;;11.00;99.90;;;;;;468622;253;28629;-73
2023/04/23 01:50:00;;;;;;;4.73;4.33;;;11.00;99.90;;;;;;468619;253;28223;-73
2023/04/23 01:52:02;;;;;;;4.87;4.47;;;11.00;99.90;;;;;;468628;253;28150;-72
2023/04/23 01:54:03;;;;;;;4.57;4.17;;;11.00;99.90;;;;;;468593;253;28305;-72
2023/04/23 01:56:04;;;;;;;4.30;4.00;;;11.00;99.90;;;;;;468491;253;28275;-72
2023/04/23 01:58:05;;;;;;;4.87;4.40;;;11.00;99.90;;;;;;468622;253;28424;-73
2023/04/23 02:00:07;;;;;;;5.40;4.90;;;11.00;99.90;;;;;;468625;253;28349;-72
2023/04/23 02:02:12;;;;;;;4.30;3.90;;;11.00;99.90;;;;;;468643;253;28156;-72
2023/04/23 02:04:09;;;;;;;4.73;4.33;;;11.00;99.90;;;;;;468300;254;28071;-73
2023/04/23 02:06:10;;;;;;;3.97;3.53;;;10.90;99.90;;;;;;468589;253;28201;-72
2023/04/23 02:08:12;;;;;;;4.10;3.80;;;10.90;99.90;;;;;;468592;254;28935;-73
2023/04/23 02:10:13;;;;;;;4.33;4.03;;;11.00;99.90;;;;;;468604;253;28843;-72
2023/04/23 02:12:14;;;;;;;4.83;4.40;;;10.90;99.90;;;;;;468628;253;28553;-72
2023/04/23 02:14:16;;;;;;;5.80;5.00;;;10.90;99.90;;;;;;468588;253;28203;-72
2023/04/23 02:16:18;;;;;;;4.17;3.87;;;10.90;99.90;;;;;;468624;250;28207;-72
2023/04/23 02:18:18;;;;;;;4.97;4.57;;;10.90;99.90;;;;;;468616;253;28016;-72
2023/04/23 02:20:20;;;;;;;5.93;4.03;;;10.80;99.90;;;;;;468633;253;28431;-72
2023/04/23 02:22:21;;;;;;;3.83;3.53;;;10.80;99.90;;;;;;468629;254;28167;-72
2023/04/23 02:24:22;;;;;;;3.90;3.60;;;10.80;99.90;;;;;;468583;253;28371;-72
2023/04/23 02:26:24;;;;;;;4.00;3.70;;;10.80;99.90;;;;;;468642;253;28761;-72
2023/04/23 02:28:24;;;;;;;4.53;4.13;;;10.80;99.90;;;;;;468601;253;28837;-73
2023/04/23 02:30:25;;;;;;;4.60;4.20;;;10.80;99.90;;;;;;468622;253;28820;-73
2023/04/23 02:32:27;;;;;;;4.10;3.80;;;10.80;99.90;;;;;;468646;253;28622;-72
2023/04/23 02:34:28;;;;;;;4.50;4.10;;;10.80;99.90;;;;;;468544;253;28210;-73
2023/04/23 02:36:31;;;;;;;4.50;4.10;;;10.80;99.90;;;;;;468644;253;28245;-72
2023/04/23 02:38:30;;;;;;;4.10;3.80;;;10.90;99.90;;;;;;468580;253;28041;-73
2023/04/23 02:40:32;;;;;;;3.50;3.20;;;10.80;99.90;;;;;;468574;253;28119;-72
2023/04/23 02:42:33;;;;;;;4.90;4.50;;;10.90;99.90;;;;;;468648;253;28235;-72
2023/04/23 02:44:34;;;;;;;4.90;4.50;;;10.90;99.90;;;;;;468572;253;28192;-72
2023/04/23 02:46:36;;;;;;;5.77;4.00;;;10.90;99.90;;;;;;468605;253;28335;-72
2023/04/23 02:48:37;;;;;;;4.40;4.00;;;10.90;99.90;;;;;;468658;253;28148;-72
2023/04/23 02:50:38;;;;;;;4.20;3.80;;;10.80;99.90;;;;;;468622;253;28765;-72
2023/04/23 02:52:40;;;;;;;3.83;3.53;;;10.80;99.90;;;;;;468641;253;28650;-72
2023/04/23 02:54:40;;;;;;;5.20;4.67;;;10.80;99.90;;;;;;468539;253;28846;-72
2023/04/23 02:56:42;;;;;;;6.03;4.70;;;10.80;99.90;;;;;;468597;253;28516;-73
2023/04/23 02:58:43;;;;;;;4.77;4.37;;;10.80;99.90;;;;;;468651;253;28100;-73
2023/04/23 03:00:44;;;;;;;4.47;4.07;;;10.70;99.90;;;;;;468599;253;28062;-73
2023/04/23 03:02:45;;;;;;;4.27;3.97;;;10.70;99.90;;;;;;468628;253;28146;-72
2023/04/23 03:04:47;;;;;;;5.00;4.50;;;10.80;99.90;;;;;;468582;253;28224;-73
2023/04/23 03:06:48;;;;;;;3.83;3.60;;;10.80;99.90;;;;;;468616;253;28085;-72
2023/04/23 03:08:49;;;;;;;4.57;4.27;;;10.70;99.90;;;;;;468643;254;28262;-72
2023/04/23 03:10:50;;;;;;;4.17;3.77;;;10.70;99.90;;;;;;468609;254;28316;-73
2023/04/23 03:12:52;;;;;;;4.53;4.20;;;10.70;99.90;;;;;;468611;253;28172;-72
2023/04/23 03:14:53;;;;;;;4.03;3.73;;;10.60;99.90;;;;;;468368;253;28106;-73
2023/04/23 03:16:54;;;;;;;3.67;3.37;;;10.70;99.90;;;;;;468584;250;28652;-72
2023/04/23 03:18:55;;;;;;;4.20;3.80;;;10.70;99.90;;;;;;468645;253;28735;-72
2023/04/23 03:20:57;;;;;;;4.07;3.77;;;10.60;99.90;;;;;;468618;253;28678;-73
2023/04/23 03:22:58;;;;;;;4.23;3.57;;;10.50;99.90;;;;;;468593;253;28156;-73
2023/04/23 03:24:59;;;;;;;3.83;3.53;;;10.50;99.90;;;;;;468554;253;28218;-72
2023/04/23 03:27:00;;;;;;;3.47;3.17;;;10.50;99.90;;;;;;468582;253;28182;-72
2023/04/23 03:29:02;;;;;;;3.53;3.23;;;10.50;99.90;;;;;;468641;253;28044;-72
2023/04/23 03:31:03;;;;;;;3.80;3.53;;;10.60;99.90;;;;;;468601;253;27986;-73
2023/04/23 03:33:04;;;;;;;3.63;3.43;;;10.60;99.90;;;;;;468619;253;27809;-73
2023/04/23 03:35:05;;;;;;;3.57;3.27;;;10.60;99.90;;;;;;468545;253;28166;-73
2023/04/23 03:37:07;;;;;;;4.13;3.80;;;10.60;99.90;;;;;;468612;253;28055;-73
2023/04/23 03:39:08;;;;;;;3.43;3.20;;;10.70;99.90;;;;;;468666;253;28173;-72
2023/04/23 03:41:09;;;;;;;4.10;3.10;;;10.60;99.90;;;;;;468623;254;28720;-72
2023/04/23 03:43:10;;;;;;;3.73;3.43;;;10.70;99.90;;;;;;468614;253;28603;-72
2023/04/23 03:45:12;;;;;;;3.37;3.13;;;10.70;99.90;;;;;;468599;253;28684;-72
2023/04/23 03:47:13;;;;;;;3.77;3.37;;;10.70;99.90;;;;;;468641;253;29435;-72
2023/04/23 03:49:15;;;;;;;3.77;3.33;;;10.70;99.90;;;;;;468607;253;28052;-72
2023/04/23 03:51:15;;;;;;;3.60;3.30;;;10.70;99.90;;;;;;468582;253;28226;-73
2023/04/23 03:53:17;;;;;;;3.80;3.50;;;10.70;99.90;;;;;;468611;253;28186;-72
2023/04/23 03:55:19;;;;;;;3.50;3.17;;;10.70;99.90;;;;;;468549;253;28076;-72
2023/04/23 03:57:19;;;;;;;3.37;3.07;;;10.70;99.90;;;;;;468583;253;28171;-72
2023/04/23 03:59:21;;;;;;;3.97;3.67;;;10.70;99.90;;;;;;468629;254;28104;-72
2023/04/23 04:01:22;;;;;;;3.50;3.10;;;10.70;99.90;;;;;;468609;253;28184;-73
2023/04/23 04:03:23;;;;;;;3.20;2.90;;;10.80;99.90;;;;;;468584;253;28098;-72
2023/04/23 04:05:24;;;;;;;4.40;3.70;;;10.70;99.90;;;;;;468552;253;28236;-73
2023/04/23 04:07:26;;;;;;;3.57;3.27;;;10.70;99.90;;;;;;468636;254;28746;-73
2023/04/23 04:09:27;;;;;;;3.80;3.50;;;10.70;99.90;;;;;;468582;253;28754;-72
2023/04/23 04:11:28;;;;;;;3.80;3.50;;;10.70;99.90;;;;;;468622;253;28544;-73
2023/04/23 04:13:30;;;;;;;5.23;4.03;;;10.70;99.90;;;;;;468612;252;28133;-72
2023/04/23 04:15:31;;;;;;;4.93;3.80;;;10.80;99.90;;;;;;468540;253;27855;-73
2023/04/23 04:17:32;;;;;;;3.70;3.40;;;10.70;99.90;;;;;;468546;253;28051;-72
2023/04/23 04:19:33;;;;;;;4.40;4.00;;;10.70;99.90;;;;;;468570;253;27980;-73
2023/04/23 04:21:34;;;;;;;4.63;3.83;;;10.70;99.90;;;;;;468613;253;28183;-73
2023/04/23 04:23:36;;;;;;;4.00;3.60;;;10.80;99.90;;;;;;468596;253;27962;-73
2023/04/23 04:25:38;;;;;;;3.50;3.20;;;10.80;99.90;;;;;;468509;253;28154;-72
2023/04/23 04:27:40;;;;;;;3.63;3.33;;;10.80;99.90;;;;;;468516;254;28167;-73
2023/04/23 04:29:42;;;;;;;4.00;3.17;;;10.70;99.90;;;;;;468494;254;28030;-73
2023/04/23 04:31:43;;;;;;;3.40;3.20;;;10.70;99.90;;;;;;468618;253;28220;-72
2023/04/23 04:33:45;;;;;;;3.80;3.50;;;10.70;99.90;;;;;;468604;253;27981;-72
2023/04/23 04:35:48;;;;;;;4.00;3.70;;;10.70;99.90;;;;;;468487;253;28164;-72
2023/04/23 04:37:48;;;;;;;3.60;3.23;;;10.70;99.90;;;;;;468462;250;28334;-72
2023/04/23 04:39:48;;;;;;;4.67;4.17;;;10.70;99.90;;;;;;468521;254;28710;-73
2023/04/23 04:41:50;;;;;;;8.33;4.60;;;10.70;99.90;;;;;;468622;253;28737;-72
2023/04/23 04:43:51;;;;;;;3.83;3.53;;;10.70;99.90;;;;;;468587;253;28774;-72
2023/04/23 04:45:52;;;;;;;6.27;4.10;;;10.70;99.90;;;;;;468522;253;28707;-72
2023/04/23 04:47:53;;;;;;;4.83;4.43;;;10.70;99.90;;;;;;468610;253;28092;-72
2023/04/23 04:49:56;;;;;;;3.80;3.50;;;10.80;99.90;;;;;;468628;253;28068;-73
2023/04/23 04:51:56;;;;;;;4.80;4.40;;;10.80;99.90;;;;;;468514;254;28280;-73
2023/04/23 04:53:57;;;;;;;4.20;3.83;;;10.80;99.90;;;;;;468576;250;28147;-73
2023/04/23 04:55:58;;;;;;;4.97;4.10;;;10.80;99.90;;;;;;468522;253;28185;-73
2023/04/23 04:58:00;;;;;;;4.30;4.00;;;10.90;99.90;;;;;;468613;253;28271;-72
2023/04/23 05:00:01;;;;;;;4.63;4.10;;;10.80;99.90;;;;;;468613;253;28007;-73
2023/04/23 05:02:02;;;;;;;4.53;3.70;;;10.90;99.90;;;;;;468569;253;28185;-73
2023/04/23 05:04:03;;;;;;;4.33;3.93;;;10.80;99.90;;;;;;468590;253;28219;-73
2023/04/23 05:06:05;;;;;;;4.90;4.40;;;10.80;99.90;;;;;;468525;250;28559;-73
2023/04/23 05:08:07;;;;;;;5.23;4.50;;;10.90;99.90;;;;;;468612;253;28811;-72
2023/04/23 05:10:07;;;;;;;5.30;4.00;;;10.90;99.90;;;;;;468573;254;28586;-72
2023/04/23 05:12:08;;;;;;;4.20;3.80;;;11.00;99.90;;;;;;468628;253;28047;-72
2023/04/23 05:14:10;;;;;;;4.53;4.13;;;11.00;99.90;;;;;;468631;253;28383;-72
2023/04/23 05:16:11;;;;;;;4.30;3.83;;;11.10;99.90;;;;;;468587;253;28216;-72
2023/04/23 05:18:12;;;;;;;4.90;4.40;;;11.10;99.90;;;;;;468642;253;28305;-73
2023/04/23 05:20:14;;;;;;;5.10;4.60;;;11.10;99.90;;;;;;468687;253;28238;-73
2023/04/23 05:22:17;;;;;;;3.80;3.50;;;11.00;99.90;;;;;;468612;253;28372;-73
2023/04/23 05:24:16;;;;;;;6.53;4.33;;;11.00;99.90;;;;;;468536;253;28417;-73
2023/04/23 05:26:18;;;;;;;4.67;4.20;;;10.90;99.90;;;;;;468651;253;28160;-72
2023/04/23 05:28:18;;;;;;;4.63;4.23;;;11.00;99.90;;;;;;468605;253;28217;-72
2023/04/23 05:30:20;;;;;;;6.57;5.20;;;11.00;99.90;;;;;;468673;253;28765;-73
2023/04/23 05:32:21;;;;;;;4.70;4.30;;;10.90;99.90;;;;;;468619;253;28720;-72
2023/04/23 05:34:22;;;;;;;6.80;4.90;;;11.00;99.90;;;;;;468564;250;28773;-73
2023/04/23 05:36:23;;;;;;;5.93;5.10;;;10.90;99.90;;;;;;468616;253;28946;-72
2023/04/23 05:38:25;;;;;;;6.17;5.57;;;10.90;99.90;;;;;;468598;253;28082;-72
2023/04/23 05:40:26;;;;;;;5.20;4.70;;;10.90;99.90;;;;;;468637;254;28187;-73
2023/04/23 05:42:27;;;;;;;4.67;4.10;;;11.00;99.90;;;;;;468610;253;28300;-72
2023/04/23 05:44:28;;;;;;;5.00;4.50;;;11.00;99.90;;;;;;468565;253;28074;-73
2023/04/23 05:46:30;;;;;;;5.27;4.77;;;11.00;99.90;;;;;;468621;253;28150;-73
2023/04/23 05:48:31;;;;;;;4.93;4.43;;;11.00;99.90;;;;;;468563;253;28183;-72
2023/04/23 05:50:32;;;;;;;5.03;4.57;;;11.10;99.90;;;;;;468565;254;28615;-72
2023/04/23 05:52:36;;;;;;;6.80;4.77;;;11.00;99.90;;;;;;468598;253;28349;-73
2023/04/23 05:54:35;;;;;;;5.73;4.47;;;11.00;99.90;;;;;;468380;254;28897;-72
2023/04/23 05:56:36;;;;;;;7.07;5.07;;;11.10;99.90;;;;;;468572;253;28732;-71
2023/04/23 05:58:37;;;;;;;5.07;4.10;;;11.10;99.90;;;;;;468551;253;28973;-72
2023/04/23 06:00:39;;;;;;;4.60;4.17;;;11.20;99.90;;;;;;468625;253;28871;-73
2023/04/23 06:02:40;;;;;;;5.50;4.37;;;11.20;99.90;;;;;;468597;253;28126;-72
2023/04/23 06:04:41;;;;;;;6.20;4.80;;;11.20;99.90;;;;;;468522;253;28408;-72
2023/04/23 06:06:42;;;;;;;4.53;4.13;;;11.40;99.90;;;;;;468567;253;28350;-72
2023/04/23 06:08:43;;;;;;;6.63;5.70;;;11.30;99.90;;;;;;468599;253;28411;-72
2023/04/23 06:10:45;;;;;;;5.83;5.20;;;11.40;99.90;;;;;;468647;253;28259;-73
2023/04/23 06:12:46;;;;;;;6.47;5.33;;;11.30;99.90;;;;;;468649;253;28296;-71
2023/04/23 06:14:47;;;;;;;4.70;4.27;;;11.30;99.90;;;;;;468539;253;28228;-72
2023/04/23 06:16:48;;;;;;;5.20;4.53;;;11.30;99.90;;;;;;468598;253;28874;-72
2023/04/23 06:18:50;;;;;;;5.00;4.60;;;11.40;99.90;;;;;;468602;253;28860;-72
2023/04/23 06:20:51;;;;;;;5.07;4.60;;;11.50;99.90;;;;;;468580;254;28707;-73
2023/04/23 06:22:52;;;;;;;5.70;5.20;;;11.50;99.90;;;;;;468630;253;28759;-72
2023/04/23 06:24:53;;;;;;;5.73;4.97;;;11.60;99.90;;;;;;468544;253;28228;-73
2023/04/23 06:26:55;;;;;;;7.57;5.73;;;11.50;99.90;;;;;;468633;250;28203;-72
2023/04/23 06:28:56;;;;;;;5.70;5.20;;;11.50;99.90;;;;;;468582;253;28511;-73
2023/04/23 06:30:57;;;;;;;5.17;4.67;;;11.60;99.90;;;;;;468624;253;28467;-73
2023/04/23 06:32:59;;;;;;;4.87;4.37;;;11.50;99.90;;;;;;468628;253;28254;-72
2023/04/23 06:35:00;;;;;;;4.97;4.57;;;11.60;99.90;;;;;;468539;253;27969;-72
2023/04/23 06:37:01;;;;;;;9.10;5.50;;;11.70;99.90;;;;;;468616;253;28499;-72
2023/04/23 06:39:02;;;;;;;5.73;5.10;;;11.80;99.90;;;;;;468635;253;28970;-73
2023/04/23 06:41:04;;;;;;;4.50;4.07;;;11.80;99.90;;;;;;468619;253;29149;-75
2023/04/23 06:43:06;;;;;;;4.80;4.40;;;12.00;99.90;;;;;;468612;253;28862;-78
2023/04/23 06:45:06;;;;;;;4.83;4.40;;;12.00;99.90;;;;;;468441;254;29465;-78
2023/04/23 06:47:07;;;;;;;5.03;4.43;;;12.10;99.90;;;;;;472993;245;28458;-79
2023/04/23 06:49:08;;;;;;;9.73;4.77;;;12.20;99.90;;;;;;472966;251;28353;-78
2023/04/23 06:51:10;;;;;;;5.63;5.13;;;12.20;99.90;;;;;;472978;249;27967;-78
2023/04/23 06:53:11;;;;;;;5.13;4.63;;;12.20;99.90;;;;;;473031;251;28804;-79
2023/04/23 06:55:12;;;;;;;5.20;4.70;;;12.20;99.90;;;;;;472960;251;28389;-78
2023/04/23 06:57:13;;;;;;;5.27;4.70;;;12.30;99.90;;;;;;476486;249;28094;-77
2023/04/23 06:59:15;;;;;;;4.30;3.83;;;12.00;99.90;;;;;;476748;249;29004;-78
2023/04/23 07:01:16;;;;;;;4.57;3.63;;;12.30;99.90;;;;;;476617;249;28313;-78
2023/04/23 07:03:17;;;;;;;4.33;3.93;;;12.30;99.90;;;;;;476702;249;28305;-78
2023/04/23 07:05:18;;;;;;;4.47;4.07;;;12.40;99.90;;;;;;476638;249;28762;-78
2023/04/23 07:07:20;;;;;;;8.10;4.87;;;12.40;99.90;;;;;;476520;249;28744;-79
2023/04/23 07:09:22;;;;;;;4.70;4.30;;;12.40;99.90;;;;;;474680;250;28852;-78
2023/04/23 07:11:22;;;;;;;6.27;4.00;;;12.30;99.90;;;;;;474868;249;28223;-78
2023/04/23 07:13:23;;;;;;;6.23;4.10;;;12.40;99.90;;;;;;472899;251;28636;-78
2023/04/23 07:15:26;;;;;;;6.73;4.03;;;;;;;;;;472921;251;28173;-77
2023/04/23 07:17:27;;;;;;;4.40;3.83;;;12.40;99.90;;;;;;468324;253;27053;-78
2023/04/23 07:19:28;;;;;;;5.47;4.00;;;12.50;99.90;;;;;;468192;254;28720;-78
2023/04/23 07:21:31;;;;;;;4.37;3.93;;;12.60;99.90;;;;;;472431;249;28552;-78
2023/04/23 07:23:31;;;;;;;4.87;4.40;;;12.70;99.90;;;;;;476564;249;28805;-78
2023/04/23 07:25:32;;;;;;;5.90;4.30;;;12.70;99.90;;;;;;476573;249;28382;-77
2023/04/23 07:27:33;;;;;;;4.60;4.10;;;12.70;99.90;;;;;;476742;249;28456;-77
2023/04/23 07:29:35;;;;;;;7.57;4.60;;;12.70;99.90;;;;;;476682;249;28308;-77
2023/04/23 07:31:36;;;;;;;4.27;3.90;;;12.70;99.90;;;;;;476685;249;28102;-77
2023/04/23 07:33:37;;;;;;;4.10;3.80;;;12.70;99.90;;;;;;476700;249;28383;-78
2023/04/23 07:35:38;;;;;;;6.43;4.63;;;12.70;99.90;;;;;;476639;249;28293;-78
2023/04/23 07:37:40;;;;;;;5.90;4.40;;;12.70;99.90;;;;;;476689;249;28627;-77
2023/04/23 07:39:41;;;;;;;5.90;4.80;;;12.60;99.90;;;;;;476710;249;28253;-77
2023/04/23 07:41:42;;;;;;;5.57;4.13;;;12.60;99.90;;;;;;476621;245;28202;-78
2023/04/23 07:43:43;;;;;;;6.30;4.43;;;12.60;99.90;;;;;;476721;249;28737;-77
2023/04/23 07:45:45;;;;;;;5.73;3.60;;;12.70;99.90;;;;;;476428;249;28878;-77
2023/04/23 07:47:46;;;;;;;4.30;3.90;;;12.70;99.90;;;;;;476682;249;28336;-78
2023/04/23 07:49:47;;;;;;;4.37;3.97;;;12.80;99.90;;;;;;476613;249;28539;-77
2023/04/23 07:51:48;;;;;;;4.03;3.40;;;12.80;99.90;;;;;;476633;249;28225;-78
2023/04/23 07:53:51;;;;;;;4.30;3.50;;;13.00;99.90;;;;;;476788;249;28448;-78
2023/04/23 07:55:51;;;;;;;4.83;4.13;;;13.30;99.90;;;;;;476365;245;28483;-78
2023/04/23 07:57:52;;;;;;;4.37;3.50;;;13.40;99.90;;;;;;472945;251;28149;-77
2023/04/23 07:59:53;;;;;;;4.83;4.40;;;13.30;99.90;;;;;;473008;251;28848;-78
2023/04/23 08:01:55;;;;;;;3.90;3.60;;;13.40;99.90;;;;;;472976;249;29075;-78
2023/04/23 08:03:56;;;;;;;7.20;4.07;;;13.40;99.90;;;;;;472974;251;29342;-78
2023/04/23 08:05:57;;;;;;;4.97;4.27;;;13.30;99.90;;;;;;473265;249;28902;-77
2023/04/23 08:07:58;;;;;;;4.77;4.17;;;13.50;99.90;;;;;;474692;250;28338;-77
2023/04/23 08:10:03;;;;;;;4.17;3.77;;;13.70;99.90;;;;;;476531;249;28595;-78
2023/04/23 08:12:01;;;;;;;3.53;3.23;;;13.90;99.90;;;;;;470626;250;28889;-78
2023/04/23 08:14:02;;;;;;;3.77;3.47;;;14.10;99.90;;;;;;476944;249;28817;-78
2023/04/23 08:16:03;;;;;;;4.13;3.80;;;14.10;99.90;;;;;;468437;250;28955;-77
2023/04/23 08:18:05;;;;;;;3.80;3.40;;;14.20;99.90;;;;;;474479;249;28882;-78
2023/04/23 08:20:06;;;;;;;3.57;3.27;;;14.30;99.90;;;;;;478311;248;28949;-78
2023/04/23 08:22:08;;;;;;;6.17;3.47;;;14.40;99.90;;;;;;477334;245;28784;-77
2023/04/23 08:24:08;;;;;;;5.90;3.30;;;14.60;99.90;;;;;;476533;249;28900;-78
2023/04/23 08:26:10;;;;;;;5.70;3.83;;;14.70;99.90;;;;;;476498;246;29480;-78
2023/04/23 08:28:11;;;;;;;4.30;3.10;;;14.80;99.90;;;;;;471569;251;30153;-77
2023/04/23 08:30:12;;;;;;;4.53;3.10;;;14.80;99.90;;;;;;471555;251;29298;-78
2023/04/23 08:32:13;;;;;;;3.90;2.90;;;14.60;99.90;;;;;;478966;245;29479;-78
2023/04/23 08:34:15;;;;;;;4.87;3.20;;;14.50;99.90;;;;;;471549;251;28831;-78
2023/04/23 08:36:16;;;;;;;6.43;3.17;;;14.30;99.90;;;;;;480150;247;28813;-77
2023/04/23 08:38:17;;;;;;;3.13;2.90;;;14.40;99.90;;;;;;476064;249;28989;-78
2023/04/23 08:40:18;;;;;;;3.87;3.30;;;14.40;99.90;;;;;;477975;248;28998;-78
2023/04/23 08:42:20;;;;;;;3.10;2.80;;;14.40;99.90;;;;;;473188;250;29220;-78
2023/04/23 08:44:21;;;;;;;2.90;2.30;;;14.60;99.90;;;;;;474457;249;28898;-77
2023/04/23 08:46:22;;;;;;;3.33;2.43;;;14.70;99.90;;;;;;478389;245;28880;-78
2023/04/23 08:48:24;;;;;;;5.17;2.80;;;14.80;99.90;;;;;;478328;248;29012;-78
2023/04/23 08:50:25;;;;;;;4.10;2.80;;;14.90;99.90;;;;;;478301;248;29453;-78
2023/04/23 08:52:26;;;;;;;4.00;2.93;;;14.80;99.90;;;;;;478389;245;29344;-77
2023/04/23 08:54:27;;;;;;;8.83;3.73;;;14.80;99.90;;;;;;478229;248;29375;-77
2023/04/23 08:56:29;;;;;;;4.53;3.13;;;14.90;99.90;;;;;;478363;245;29474;-78
2023/04/23 08:58:30;;;;;;;5.67;3.27;;;14.90;99.90;;;;;;478365;248;28987;-78
2023/04/23 09:00:31;;;;;;;3.60;2.60;;;15.10;99.90;;;;;;478311;248;29330;-77
2023/04/23 09:02:32;;;;;;;3.80;2.73;;;15.10;99.90;;;;;;477881;248;29363;-78
2023/04/23 09:04:34;;;;;;;2.90;2.70;;;15.20;99.90;;;;;;477904;248;29425;-79
2023/04/23 09:06:35;;;;;;;3.90;2.80;;;15.20;99.90;;;;;;477990;248;29615;-79
2023/04/23 09:08:36;;;;;;;4.33;3.00;;;15.30;99.90;;;;;;478111;248;28842;-78
2023/04/23 09:10:37;;;;;;;3.03;2.70;;;15.40;99.90;;;;;;478400;248;28891;-79
2023/04/23 09:12:39;;;;;;;3.80;2.57;;;15.60;99.90;;;;;;478412;248;28910;-78
2023/04/23 09:14:40;;;;;;;3.00;2.70;;;15.70;99.90;;;;;;478336;248;28900;-79
2023/04/23 09:16:41;;;;;;;4.00;2.63;;;15.80;99.90;;;;;;482985;245;28953;-78
2023/04/23 09:18:42;;;;;;;3.20;2.43;;;15.90;99.90;;;;;;484542;245;29235;-79
2023/04/23 09:20:44;;;;;;;5.13;2.47;;;15.90;99.90;;;;;;484569;245;28991;-79
2023/04/23 09:22:45;;;;;;;2.63;2.43;;;15.80;99.90;;;;;;484528;245;28972;-79
2023/04/23 09:24:46;;;;;;;2.93;2.63;;;15.80;99.90;;;;;;484503;245;29389;-79
2023/04/23 09:26:47;;;;;;;2.97;2.70;;;15.60;99.90;;;;;;484459;245;29342;-79
2023/04/23 09:28:50;;;;;;;3.37;2.20;;;15.60;99.90;;;;;;484557;242;29452;-78
2023/04/23 09:30:50;;;;;;;3.00;2.40;;;15.50;99.90;;;;;;484536;245;29280;-80
2023/04/23 09:32:51;;;;;;;3.03;2.70;;;14.70;99.90;;;;;;484526;245;28854;-79
2023/04/23 09:34:52;;;;;;;5.33;3.10;;;15.70;99.90;;;;;;484499;245;28921;-79
2023/04/23 09:36:54;;;;;;;4.33;2.67;;;15.90;99.90;;;;;;484486;245;28964;-80
2023/04/23 09:38:56;;;;;;;2.77;2.57;;;15.80;99.90;;;;;;484571;245;29242;-78
2023/04/23 09:40:56;;;;;;;4.50;2.77;;;15.90;99.90;;;;;;484498;245;28919;-79
2023/04/23 09:42:57;;;;;;;4.10;2.40;;;16.00;99.90;;;;;;484505;245;28873;-79
2023/04/23 09:44:59;;;;;;;3.53;2.40;;;16.00;99.90;;;;;;484486;242;28852;-79
2023/04/23 09:47:00;;;;;;;3.70;2.60;;;16.20;99.90;;;;;;484517;245;28960;-79
2023/04/23 09:49:01;;;;;;;2.60;2.40;;;16.20;99.90;;;;;;484545;245;29359;-78
2023/04/23 09:51:02;;;;;;;3.03;2.57;;;16.40;99.90;;;;;;484544;245;29283;-79
2023/04/23 09:53:04;;;;;;;5.00;2.80;;;16.30;99.90;;;;;;484527;245;29452;-79
2023/04/23 09:55:05;;;;;;;2.33;2.13;;;16.20;99.90;;;;;;484472;245;29388;-79
2023/04/23 09:57:07;;;;;;;4.97;2.60;;;16.20;99.90;;;;;;484535;245;28911;-79
2023/04/23 09:59:07;;;;;;;2.33;2.13;;;16.40;99.90;;;;;;484463;245;28879;-79
2023/04/23 10:01:09;;;;;;;2.20;2.00;;;16.70;99.90;;;;;;484539;245;28831;-79
2023/04/23 10:03:10;;;;;;;2.60;2.10;;;16.70;99.90;;;;;;484567;245;28880;-79
2023/04/23 10:05:11;;;;;;;2.93;2.10;;;16.30;99.90;;;;;;484494;245;28966;-79
2023/04/23 10:07:12;;;;;;;3.93;2.20;;;16.50;99.90;;;;;;484571;242;28868;-79
2023/04/23 10:09:14;;;;;;;3.10;2.33;;;16.40;99.90;;;;;;484606;245;28863;-79
2023/04/23 10:11:15;;;;;;;5.60;2.27;;;16.20;99.90;;;;;;484562;245;28824;-79
2023/04/23 10:13:16;;;;;;;2.33;1.97;;;16.30;99.90;;;;;;484568;245;28869;-79
2023/04/23 10:15:18;;;;;;;2.87;2.23;;;16.60;99.90;;;;;;484525;245;30123;-79
2023/04/23 10:17:19;;;;;;;3.57;2.10;;;16.70;99.90;;;;;;484568;245;29306;-79
2023/04/23 10:19:21;;;;;;;2.27;2.07;;;16.60;99.90;;;;;;484552;245;29453;-78
2023/04/23 10:21:21;;;;;;;3.23;2.60;;;16.70;99.90;;;;;;484526;245;28936;-79
2023/04/23 10:23:23;;;;;;;2.50;1.80;;;16.60;99.90;;;;;;484571;245;28988;-79
2023/04/23 10:25:24;;;;;;;2.83;2.17;;;16.70;99.90;;;;;;484424;245;28935;-79
2023/04/23 10:27:25;;;;;;;3.70;2.30;;;16.80;99.90;;;;;;484565;245;28873;-80
2023/04/23 10:29:27;;;;;;;2.47;2.27;;;16.90;99.90;;;;;;484561;245;28897;-79
2023/04/23 10:31:28;;;;;;;4.30;2.40;;;16.70;99.90;;;;;;484499;245;28872;-79